sensor_id;sensor_type;location;lat;lon;timestamp;temperature;humidity
66722;SHT31;53633;49.932;10.884;2022-07-11T00:01:40;15.56;81.88
66722;SHT31;53633;49.932;10.884;2022-07-11T00:04:07;15.56;82.49
66722;SHT31;53633;49.932;10.884;2022-07-11T00:06:34;15.36;83.88
66722;SHT31;53633;49.932;10.884;2022-07-11T00:09:01;15.39;83.27
66722;SHT31;53633;49.932;10.884;2022-07-11T00:11:29;15.63;82.26
66722;SHT31;53633;49.932;10.884;2022-07-11T00:13:55;15.73;81.59
66722;SHT31;53633;49.932;10.884;2022-07-11T00:16:22;15.73;81.90
66722;SHT31;53633;49.932;10.884;2022-07-11T00:18:52;15.63;82.92
66722;SHT31;53633;49.932;10.884;2022-07-11T00:21:20;15.58;82.71
66722;SHT31;53633;49.932;10.884;2022-07-11T00:23:47;15.30;83.89
66722;SHT31;53633;49.932;10.884;2022-07-11T00:26:13;15.31;83.88
66722;SHT31;53633;49.932;10.884;2022-07-11T00:28:41;15.46;83.51
66722;SHT31;53633;49.932;10.884;2022-07-11T00:31:08;15.32;83.94
66722;SHT31;53633;49.932;10.884;2022-07-11T00:33:35;15.24;84.34
66722;SHT31;53633;49.932;10.884;2022-07-11T00:36:02;15.39;83.60
66722;SHT31;53633;49.932;10.884;2022-07-11T00:38:28;15.52;83.13
66722;SHT31;53633;49.932;10.884;2022-07-11T00:40:55;15.61;83.39
66722;SHT31;53633;49.932;10.884;2022-07-11T00:43:30;15.28;84.35
66722;SHT31;53633;49.932;10.884;2022-07-11T00:45:58;14.97;85.71
66722;SHT31;53633;49.932;10.884;2022-07-11T00:48:25;14.89;86.22
66722;SHT31;53633;49.932;10.884;2022-07-11T00:50:52;15.06;85.62
66722;SHT31;53633;49.932;10.884;2022-07-11T00:53:20;15.35;84.68
66722;SHT31;53633;49.932;10.884;2022-07-11T00:55:47;15.30;84.50
66722;SHT31;53633;49.932;10.884;2022-07-11T00:58:14;14.93;85.91
66722;SHT31;53633;49.932;10.884;2022-07-11T01:00:41;15.17;85.09
66722;SHT31;53633;49.932;10.884;2022-07-11T01:03:09;15.07;85.65
66722;SHT31;53633;49.932;10.884;2022-07-11T01:05:36;15.16;85.39
66722;SHT31;53633;49.932;10.884;2022-07-11T01:08:03;15.31;84.67
66722;SHT31;53633;49.932;10.884;2022-07-11T01:10:31;15.38;84.47
66722;SHT31;53633;49.932;10.884;2022-07-11T01:12:58;15.27;84.74
66722;SHT31;53633;49.932;10.884;2022-07-11T01:15:25;15.30;85.33
66722;SHT31;53633;49.932;10.884;2022-07-11T01:17:52;15.21;85.70
66722;SHT31;53633;49.932;10.884;2022-07-11T01:20:20;15.18;85.79
66722;SHT31;53633;49.932;10.884;2022-07-11T01:22:52;15.04;86.59
66722;SHT31;53633;49.932;10.884;2022-07-11T01:25:21;15.34;85.71
66722;SHT31;53633;49.932;10.884;2022-07-11T01:27:48;15.56;84.78
66722;SHT31;53633;49.932;10.884;2022-07-11T01:30:15;15.54;84.67
66722;SHT31;53633;49.932;10.884;2022-07-11T01:32:41;15.56;84.56
66722;SHT31;53633;49.932;10.884;2022-07-11T01:35:08;15.72;83.93
66722;SHT31;53633;49.932;10.884;2022-07-11T01:37:35;15.31;85.53
66722;SHT31;53633;49.932;10.884;2022-07-11T01:40:01;15.55;84.48
66722;SHT31;53633;49.932;10.884;2022-07-11T01:42:29;15.42;84.79
66722;SHT31;53633;49.932;10.884;2022-07-11T01:44:56;15.25;85.52
66722;SHT31;53633;49.932;10.884;2022-07-11T01:47:23;15.01;86.46
66722;SHT31;53633;49.932;10.884;2022-07-11T01:49:49;14.98;86.85
66722;SHT31;53633;49.932;10.884;2022-07-11T01:52:16;14.89;86.89
66722;SHT31;53633;49.932;10.884;2022-07-11T01:54:44;14.75;87.23
66722;SHT31;53633;49.932;10.884;2022-07-11T01:57:10;15.01;85.95
66722;SHT31;53633;49.932;10.884;2022-07-11T01:59:38;14.94;86.52
66722;SHT31;53633;49.932;10.884;2022-07-11T02:02:05;14.94;86.68
66722;SHT31;53633;49.932;10.884;2022-07-11T02:04:32;14.66;87.61
66722;SHT31;53633;49.932;10.884;2022-07-11T02:06:59;14.46;88.15
66722;SHT31;53633;49.932;10.884;2022-07-11T02:09:26;14.49;88.11
66722;SHT31;53633;49.932;10.884;2022-07-11T02:11:52;14.49;88.07
66722;SHT31;53633;49.932;10.884;2022-07-11T02:14:19;14.39;88.43
66722;SHT31;53633;49.932;10.884;2022-07-11T02:16:54;14.66;87.19
66722;SHT31;53633;49.932;10.884;2022-07-11T02:19:20;14.75;86.58
66722;SHT31;53633;49.932;10.884;2022-07-11T02:21:47;14.86;85.90
66722;SHT31;53633;49.932;10.884;2022-07-11T02:24:14;14.79;86.59
66722;SHT31;53633;49.932;10.884;2022-07-11T02:26:41;14.66;87.20
66722;SHT31;53633;49.932;10.884;2022-07-11T02:29:08;14.52;87.28
66722;SHT31;53633;49.932;10.884;2022-07-11T02:31:34;14.49;87.82
66722;SHT31;53633;49.932;10.884;2022-07-11T02:34:02;14.52;87.76
66722;SHT31;53633;49.932;10.884;2022-07-11T02:36:29;14.68;87.20
66722;SHT31;53633;49.932;10.884;2022-07-11T02:38:56;14.68;87.13
66722;SHT31;53633;49.932;10.884;2022-07-11T02:41:22;14.72;86.91
66722;SHT31;53633;49.932;10.884;2022-07-11T02:43:49;14.68;87.32
66722;SHT31;53633;49.932;10.884;2022-07-11T02:46:15;14.79;86.63
66722;SHT31;53633;49.932;10.884;2022-07-11T02:48:42;14.76;87.13
66722;SHT31;53633;49.932;10.884;2022-07-11T02:51:10;14.56;87.55
66722;SHT31;53633;49.932;10.884;2022-07-11T02:53:37;14.68;87.36
66722;SHT31;53633;49.932;10.884;2022-07-11T02:56:05;14.72;87.08
66722;SHT31;53633;49.932;10.884;2022-07-11T02:58:31;14.77;86.81
66722;SHT31;53633;49.932;10.884;2022-07-11T03:00:58;14.90;86.41
66722;SHT31;53633;49.932;10.884;2022-07-11T03:03:25;14.90;86.41
66722;SHT31;53633;49.932;10.884;2022-07-11T03:05:51;14.91;86.75
66722;SHT31;53633;49.932;10.884;2022-07-11T03:08:19;14.69;87.60
66722;SHT31;53633;49.932;10.884;2022-07-11T03:10:46;14.53;87.91
66722;SHT31;53633;49.932;10.884;2022-07-11T03:13:13;14.48;88.28
66722;SHT31;53633;49.932;10.884;2022-07-11T03:15:39;14.70;87.50
66722;SHT31;53633;49.932;10.884;2022-07-11T03:18:06;14.52;88.22
66722;SHT31;53633;49.932;10.884;2022-07-11T03:20:33;14.41;88.89
66722;SHT31;53633;49.932;10.884;2022-07-11T03:23:00;14.55;88.42
66722;SHT31;53633;49.932;10.884;2022-07-11T03:25:28;14.86;87.20
66722;SHT31;53633;49.932;10.884;2022-07-11T03:27:54;14.87;87.30
66722;SHT31;53633;49.932;10.884;2022-07-11T03:30:21;15.00;86.55
66722;SHT31;53633;49.932;10.884;2022-07-11T03:32:48;14.93;86.83
66722;SHT31;53633;49.932;10.884;2022-07-11T03:35:14;14.83;87.53
66722;SHT31;53633;49.932;10.884;2022-07-11T03:37:41;15.00;86.66
66722;SHT31;53633;49.932;10.884;2022-07-11T03:40:09;14.86;87.46
66722;SHT31;53633;49.932;10.884;2022-07-11T03:42:37;14.68;88.53
66722;SHT31;53633;49.932;10.884;2022-07-11T03:45:05;14.91;87.52
66722;SHT31;53633;49.932;10.884;2022-07-11T03:47:31;14.75;87.86
66722;SHT31;53633;49.932;10.884;2022-07-11T03:49:58;14.62;88.58
66722;SHT31;53633;49.932;10.884;2022-07-11T03:52:25;14.55;88.54
66722;SHT31;53633;49.932;10.884;2022-07-11T03:54:51;14.45;88.72
66722;SHT31;53633;49.932;10.884;2022-07-11T03:57:18;14.35;88.93
66722;SHT31;53633;49.932;10.884;2022-07-11T03:59:46;14.32;89.11
66722;SHT31;53633;49.932;10.884;2022-07-11T04:02:13;14.31;89.25
66722;SHT31;53633;49.932;10.884;2022-07-11T04:04:39;14.38;89.13
66722;SHT31;53633;49.932;10.884;2022-07-11T04:07:06;14.38;89.40
66722;SHT31;53633;49.932;10.884;2022-07-11T04:09:33;14.43;89.50
66722;SHT31;53633;49.932;10.884;2022-07-11T04:11:59;14.36;89.54
66722;SHT31;53633;49.932;10.884;2022-07-11T04:14:26;14.51;89.34
66722;SHT31;53633;49.932;10.884;2022-07-11T04:16:54;14.77;88.50
66722;SHT31;53633;49.932;10.884;2022-07-11T04:19:21;14.87;88.50
66722;SHT31;53633;49.932;10.884;2022-07-11T04:21:47;15.14;87.52
66722;SHT31;53633;49.932;10.884;2022-07-11T04:24:14;15.30;87.26
66722;SHT31;53633;49.932;10.884;2022-07-11T04:26:41;15.34;87.38
66722;SHT31;53633;49.932;10.884;2022-07-11T04:29:07;15.46;86.94
66722;SHT31;53633;49.932;10.884;2022-07-11T04:31:34;15.61;86.38
66722;SHT31;53633;49.932;10.884;2022-07-11T04:34:02;15.59;86.61
66722;SHT31;53633;49.932;10.884;2022-07-11T04:36:29;15.69;85.95
66722;SHT31;53633;49.932;10.884;2022-07-11T04:38:55;15.59;86.53
66722;SHT31;53633;49.932;10.884;2022-07-11T04:41:22;15.46;87.06
66722;SHT31;53633;49.932;10.884;2022-07-11T04:43:49;15.51;86.86
66722;SHT31;53633;49.932;10.884;2022-07-11T04:46:15;15.30;87.03
66722;SHT31;53633;49.932;10.884;2022-07-11T04:48:42;15.24;87.75
66722;SHT31;53633;49.932;10.884;2022-07-11T04:51:10;15.14;87.93
66722;SHT31;53633;49.932;10.884;2022-07-11T04:53:37;15.17;88.35
66722;SHT31;53633;49.932;10.884;2022-07-11T04:56:04;15.14;88.10
66722;SHT31;53633;49.932;10.884;2022-07-11T04:58:31;15.17;87.87
66722;SHT31;53633;49.932;10.884;2022-07-11T05:00:58;15.12;87.90
66722;SHT31;53633;49.932;10.884;2022-07-11T05:03:24;15.25;87.60
66722;SHT31;53633;49.932;10.884;2022-07-11T05:05:51;15.18;87.62
66722;SHT31;53633;49.932;10.884;2022-07-11T05:08:19;15.38;87.26
66722;SHT31;53633;49.932;10.884;2022-07-11T05:10:46;15.51;87.95
66722;SHT31;53633;49.932;10.884;2022-07-11T05:13:13;15.55;87.08
66722;SHT31;53633;49.932;10.884;2022-07-11T05:15:39;15.73;86.14
66722;SHT31;53633;49.932;10.884;2022-07-11T05:18:06;15.85;86.38
66722;SHT31;53633;49.932;10.884;2022-07-11T05:20:33;15.76;86.36
66722;SHT31;53633;49.932;10.884;2022-07-11T05:22:59;15.94;84.93
66722;SHT31;53633;49.932;10.884;2022-07-11T05:25:27;15.92;85.46
66722;SHT31;53633;49.932;10.884;2022-07-11T05:27:54;15.87;86.03
66722;SHT31;53633;49.932;10.884;2022-07-11T05:30:21;16.03;84.67
66722;SHT31;53633;49.932;10.884;2022-07-11T05:32:47;16.04;85.69
66722;SHT31;53633;49.932;10.884;2022-07-11T05:35:14;16.06;85.36
66722;SHT31;53633;49.932;10.884;2022-07-11T05:37:41;16.14;84.38
66722;SHT31;53633;49.932;10.884;2022-07-11T05:40:08;16.22;84.01
66722;SHT31;53633;49.932;10.884;2022-07-11T05:42:36;16.45;82.93
66722;SHT31;53633;49.932;10.884;2022-07-11T05:45:03;16.34;84.01
66722;SHT31;53633;49.932;10.884;2022-07-11T05:47:30;16.24;84.91
66722;SHT31;53633;49.932;10.884;2022-07-11T05:49:58;16.13;85.24
66722;SHT31;53633;49.932;10.884;2022-07-11T05:52:25;16.09;84.89
66722;SHT31;53633;49.932;10.884;2022-07-11T05:54:57;16.13;85.51
66722;SHT31;53633;49.932;10.884;2022-07-11T05:57:24;16.25;84.39
66722;SHT31;53633;49.932;10.884;2022-07-11T05:59:52;16.22;84.08
66722;SHT31;53633;49.932;10.884;2022-07-11T06:02:18;16.31;84.50
66722;SHT31;53633;49.932;10.884;2022-07-11T06:04:45;16.18;84.55
66722;SHT31;53633;49.932;10.884;2022-07-11T06:07:12;16.21;84.10
66722;SHT31;53633;49.932;10.884;2022-07-11T06:09:38;16.24;84.61
66722;SHT31;53633;49.932;10.884;2022-07-11T06:12:06;16.37;84.88
66722;SHT31;53633;49.932;10.884;2022-07-11T06:14:33;16.38;84.27
66722;SHT31;53633;49.932;10.884;2022-07-11T06:17:01;16.24;85.03
66722;SHT31;53633;49.932;10.884;2022-07-11T06:19:27;16.24;85.94
66722;SHT31;53633;49.932;10.884;2022-07-11T06:22:00;16.22;85.80
66722;SHT31;53633;49.932;10.884;2022-07-11T06:24:27;16.31;86.54
66722;SHT31;53633;49.932;10.884;2022-07-11T06:26:53;16.69;83.45
66722;SHT31;53633;49.932;10.884;2022-07-11T06:29:20;16.73;83.82
66722;SHT31;53633;49.932;10.884;2022-07-11T06:31:53;16.65;84.10
66722;SHT31;53633;49.932;10.884;2022-07-11T06:34:21;16.51;85.24
66722;SHT31;53633;49.932;10.884;2022-07-11T06:36:48;16.58;85.15
66722;SHT31;53633;49.932;10.884;2022-07-11T06:39:15;16.41;86.45
66722;SHT31;53633;49.932;10.884;2022-07-11T06:41:41;16.35;85.21
66722;SHT31;53633;49.932;10.884;2022-07-11T06:44:08;16.51;84.70
66722;SHT31;53633;49.932;10.884;2022-07-11T06:46:35;16.83;82.11
66722;SHT31;53633;49.932;10.884;2022-07-11T06:49:01;16.66;84.76
66722;SHT31;53633;49.932;10.884;2022-07-11T06:51:29;16.71;83.77
66722;SHT31;53633;49.932;10.884;2022-07-11T06:53:56;16.65;84.15
66722;SHT31;53633;49.932;10.884;2022-07-11T06:56:23;16.58;84.07
66722;SHT31;53633;49.932;10.884;2022-07-11T06:58:50;16.68;82.86
66722;SHT31;53633;49.932;10.884;2022-07-11T07:01:16;16.61;83.59
66722;SHT31;53633;49.932;10.884;2022-07-11T07:03:43;16.38;84.59
66722;SHT31;53633;49.932;10.884;2022-07-11T07:06:13;16.45;85.22
66722;SHT31;53633;49.932;10.884;2022-07-11T07:08:41;16.44;85.69
66722;SHT31;53633;49.932;10.884;2022-07-11T07:11:08;16.64;83.75
66722;SHT31;53633;49.932;10.884;2022-07-11T07:13:35;16.64;84.67
66722;SHT31;53633;49.932;10.884;2022-07-11T07:16:03;16.73;84.65
66722;SHT31;53633;49.932;10.884;2022-07-11T07:18:30;16.49;86.20
66722;SHT31;53633;49.932;10.884;2022-07-11T07:20:57;16.71;83.75
66722;SHT31;53633;49.932;10.884;2022-07-11T07:23:23;16.62;84.64
66722;SHT31;53633;49.932;10.884;2022-07-11T07:25:51;16.83;83.00
66722;SHT31;53633;49.932;10.884;2022-07-11T07:28:18;16.83;81.64
66722;SHT31;53633;49.932;10.884;2022-07-11T07:30:45;16.89;80.95
66722;SHT31;53633;49.932;10.884;2022-07-11T07:33:12;16.96;82.22
66722;SHT31;53633;49.932;10.884;2022-07-11T07:35:38;17.04;81.31
66722;SHT31;53633;49.932;10.884;2022-07-11T07:38:05;17.16;80.89
66722;SHT31;53633;49.932;10.884;2022-07-11T07:40:31;17.35;82.02
66722;SHT31;53633;49.932;10.884;2022-07-11T07:42:59;17.55;80.14
66722;SHT31;53633;49.932;10.884;2022-07-11T07:45:26;17.85;79.42
66722;SHT31;53633;49.932;10.884;2022-07-11T07:47:53;17.92;79.27
66722;SHT31;53633;49.932;10.884;2022-07-11T07:50:19;18.20;78.89
66722;SHT31;53633;49.932;10.884;2022-07-11T07:52:46;18.36;77.46
66722;SHT31;53633;49.932;10.884;2022-07-11T07:55:13;18.37;77.08
66722;SHT31;53633;49.932;10.884;2022-07-11T07:57:39;18.14;76.80
66722;SHT31;53633;49.932;10.884;2022-07-11T08:00:08;17.74;76.39
66722;SHT31;53633;49.932;10.884;2022-07-11T08:02:35;17.69;78.83
66722;SHT31;53633;49.932;10.884;2022-07-11T08:05:02;17.74;77.80
66722;SHT31;53633;49.932;10.884;2022-07-11T08:07:28;17.75;78.36
66722;SHT31;53633;49.932;10.884;2022-07-11T08:09:55;17.62;78.22
66722;SHT31;53633;49.932;10.884;2022-07-11T08:12:22;17.52;78.49
66722;SHT31;53633;49.932;10.884;2022-07-11T08:14:48;17.48;79.14
66722;SHT31;53633;49.932;10.884;2022-07-11T08:17:21;17.44;79.67
66722;SHT31;53633;49.932;10.884;2022-07-11T08:19:48;17.50;79.84
66722;SHT31;53633;49.932;10.884;2022-07-11T08:22:14;17.42;80.93
66722;SHT31;53633;49.932;10.884;2022-07-11T08:24:41;17.40;80.53
66722;SHT31;53633;49.932;10.884;2022-07-11T08:27:07;17.37;80.62
66722;SHT31;53633;49.932;10.884;2022-07-11T08:29:54;17.23;81.55
66722;SHT31;53633;49.932;10.884;2022-07-11T08:32:22;17.20;81.03
66722;SHT31;53633;49.932;10.884;2022-07-11T08:34:55;17.14;81.14
66722;SHT31;53633;49.932;10.884;2022-07-11T08:37:22;17.17;80.64
66722;SHT31;53633;49.932;10.884;2022-07-11T08:39:55;17.17;80.48
66722;SHT31;53633;49.932;10.884;2022-07-11T08:42:23;17.13;79.15
66722;SHT31;53633;49.932;10.884;2022-07-11T08:44:55;17.17;79.22
66722;SHT31;53633;49.932;10.884;2022-07-11T08:47:24;17.19;78.71
66722;SHT31;53633;49.932;10.884;2022-07-11T08:49:51;17.34;78.62
66722;SHT31;53633;49.932;10.884;2022-07-11T08:52:19;17.48;79.12
66722;SHT31;53633;49.932;10.884;2022-07-11T08:54:46;17.48;79.43
66722;SHT31;53633;49.932;10.884;2022-07-11T08:57:13;17.50;80.13
66722;SHT31;53633;49.932;10.884;2022-07-11T08:59:40;17.45;79.35
66722;SHT31;53633;49.932;10.884;2022-07-11T09:02:08;17.47;79.28
66722;SHT31;53633;49.932;10.884;2022-07-11T09:04:37;17.42;80.47
66722;SHT31;53633;49.932;10.884;2022-07-11T09:07:04;17.44;79.76
66722;SHT31;53633;49.932;10.884;2022-07-11T09:09:31;17.60;79.41
66722;SHT31;53633;49.932;10.884;2022-07-11T09:11:58;17.62;80.26
66722;SHT31;53633;49.932;10.884;2022-07-11T09:14:26;17.67;79.98
66722;SHT31;53633;49.932;10.884;2022-07-11T09:17:02;17.74;79.90
66722;SHT31;53633;49.932;10.884;2022-07-11T09:19:30;17.85;82.24
66722;SHT31;53633;49.932;10.884;2022-07-11T09:22:01;18.00;79.29
66722;SHT31;53633;49.932;10.884;2022-07-11T09:24:28;18.19;79.96
66722;SHT31;53633;49.932;10.884;2022-07-11T09:26:54;18.43;78.27
66722;SHT31;53633;49.932;10.884;2022-07-11T09:29:22;18.51;77.87
66722;SHT31;53633;49.932;10.884;2022-07-11T09:31:49;18.53;77.70
66722;SHT31;53633;49.932;10.884;2022-07-11T09:34:17;18.55;78.03
66722;SHT31;53633;49.932;10.884;2022-07-11T09:36:45;18.63;78.65
66722;SHT31;53633;49.932;10.884;2022-07-11T09:39:15;18.75;76.03
66722;SHT31;53633;49.932;10.884;2022-07-11T09:41:42;18.99;78.21
66722;SHT31;53633;49.932;10.884;2022-07-11T09:44:15;18.95;78.66
66722;SHT31;53633;49.932;10.884;2022-07-11T09:46:43;19.08;76.02
66722;SHT31;53633;49.932;10.884;2022-07-11T09:49:11;19.12;75.32
66722;SHT31;53633;49.932;10.884;2022-07-11T09:51:38;19.40;73.34
66722;SHT31;53633;49.932;10.884;2022-07-11T09:54:05;19.64;73.84
66722;SHT31;53633;49.932;10.884;2022-07-11T09:56:36;19.84;73.86
66722;SHT31;53633;49.932;10.884;2022-07-11T09:59:22;19.99;73.30
66722;SHT31;53633;49.932;10.884;2022-07-11T10:01:49;20.33;73.29
66722;SHT31;53633;49.932;10.884;2022-07-11T10:04:16;20.50;72.15
66722;SHT31;53633;49.932;10.884;2022-07-11T10:06:49;20.66;70.69
66722;SHT31;53633;49.932;10.884;2022-07-11T10:09:16;20.52;70.53
66722;SHT31;53633;49.932;10.884;2022-07-11T10:11:45;20.40;71.44
66722;SHT31;53633;49.932;10.884;2022-07-11T10:14:11;20.36;70.43
66722;SHT31;53633;49.932;10.884;2022-07-11T10:19:37;20.13;70.90
66722;SHT31;53633;49.932;10.884;2022-07-11T10:22:24;20.08;70.43
66722;SHT31;53633;49.932;10.884;2022-07-11T10:24:57;20.34;70.18
66722;SHT31;53633;49.932;10.884;2022-07-11T10:27:31;20.40;70.49
66722;SHT31;53633;49.932;10.884;2022-07-11T10:30:07;20.46;68.31
66722;SHT31;53633;49.932;10.884;2022-07-11T10:32:57;20.63;68.75
66722;SHT31;53633;49.932;10.884;2022-07-11T10:35:24;20.73;69.02
66722;SHT31;53633;49.932;10.884;2022-07-11T10:37:54;20.81;69.49
66722;SHT31;53633;49.932;10.884;2022-07-11T10:40:40;21.12;68.31
66722;SHT31;53633;49.932;10.884;2022-07-11T10:43:11;21.09;68.00
66722;SHT31;53633;49.932;10.884;2022-07-11T10:45:55;21.25;67.82
66722;SHT31;53633;49.932;10.884;2022-07-11T10:48:22;21.45;66.81
66722;SHT31;53633;49.932;10.884;2022-07-11T10:50:54;21.60;65.86
66722;SHT31;53633;49.932;10.884;2022-07-11T10:53:31;21.50;66.41
66722;SHT31;53633;49.932;10.884;2022-07-11T10:56:04;21.69;66.44
66722;SHT31;53633;49.932;10.884;2022-07-11T10:58:58;21.46;65.62
66722;SHT31;53633;49.932;10.884;2022-07-11T11:01:27;21.43;64.70
66722;SHT31;53633;49.932;10.884;2022-07-11T11:06:58;21.93;65.06
66722;SHT31;53633;49.932;10.884;2022-07-11T11:09:40;22.29;64.98
66722;SHT31;53633;49.932;10.884;2022-07-11T11:12:06;22.42;63.42
66722;SHT31;53633;49.932;10.884;2022-07-11T11:14:35;22.24;63.27
66722;SHT31;53633;49.932;10.884;2022-07-11T11:17:35;22.19;63.36
66722;SHT31;53633;49.932;10.884;2022-07-11T11:20:03;22.57;62.63
66722;SHT31;53633;49.932;10.884;2022-07-11T11:22:30;22.51;62.60
66722;SHT31;53633;49.932;10.884;2022-07-11T11:24:57;22.65;63.16
66722;SHT31;53633;49.932;10.884;2022-07-11T11:28:00;22.69;63.15
66722;SHT31;53633;49.932;10.884;2022-07-11T11:30:29;22.99;61.38
66722;SHT31;53633;49.932;10.884;2022-07-11T11:32:57;22.94;61.92
66722;SHT31;53633;49.932;10.884;2022-07-11T11:35:24;22.90;61.09
66722;SHT31;53633;49.932;10.884;2022-07-11T11:37:57;23.42;61.12
66722;SHT31;53633;49.932;10.884;2022-07-11T11:40:24;23.27;61.20
66722;SHT31;53633;49.932;10.884;2022-07-11T11:42:51;23.08;60.91
66722;SHT31;53633;49.932;10.884;2022-07-11T11:45:17;23.18;60.15
66722;SHT31;53633;49.932;10.884;2022-07-11T11:47:47;23.30;60.16
66722;SHT31;53633;49.932;10.884;2022-07-11T11:50:15;23.22;60.08
66722;SHT31;53633;49.932;10.884;2022-07-11T11:52:41;23.17;59.39
66722;SHT31;53633;49.932;10.884;2022-07-11T11:55:08;23.27;58.90
66722;SHT31;53633;49.932;10.884;2022-07-11T11:57:35;22.97;60.84
66722;SHT31;53633;49.932;10.884;2022-07-11T12:00:03;23.21;60.31
66722;SHT31;53633;49.932;10.884;2022-07-11T12:02:30;23.08;62.76
66722;SHT31;53633;49.932;10.884;2022-07-11T12:04:58;23.00;62.56
66722;SHT31;53633;49.932;10.884;2022-07-11T12:07:29;23.15;61.14
66722;SHT31;53633;49.932;10.884;2022-07-11T12:09:56;22.99;61.26
66722;SHT31;53633;49.932;10.884;2022-07-11T12:12:25;22.63;61.70
66722;SHT31;53633;49.932;10.884;2022-07-11T12:14:52;22.65;61.49
66722;SHT31;53633;49.932;10.884;2022-07-11T12:17:23;22.67;60.49
66722;SHT31;53633;49.932;10.884;2022-07-11T12:19:58;22.77;60.96
66722;SHT31;53633;49.932;10.884;2022-07-11T12:22:25;22.84;62.09
66722;SHT31;53633;49.932;10.884;2022-07-11T12:24:52;22.90;60.89
66722;SHT31;53633;49.932;10.884;2022-07-11T12:27:20;23.00;59.97
66722;SHT31;53633;49.932;10.884;2022-07-11T12:29:46;22.96;60.12
66722;SHT31;53633;49.932;10.884;2022-07-11T12:32:13;22.90;60.29
66722;SHT31;53633;49.932;10.884;2022-07-11T12:34:44;22.82;60.66
66722;SHT31;53633;49.932;10.884;2022-07-11T12:37:14;22.75;60.60
66722;SHT31;53633;49.932;10.884;2022-07-11T12:39:47;22.69;60.57
66722;SHT31;53633;49.932;10.884;2022-07-11T12:42:21;22.89;60.06
66722;SHT31;53633;49.932;10.884;2022-07-11T12:44:55;22.86;59.70
66722;SHT31;53633;49.932;10.884;2022-07-11T12:47:24;22.86;59.21
66722;SHT31;53633;49.932;10.884;2022-07-11T12:49:51;22.65;59.22
66722;SHT31;53633;49.932;10.884;2022-07-11T12:52:19;22.86;58.43
66722;SHT31;53633;49.932;10.884;2022-07-11T12:55:00;22.96;58.76
66722;SHT31;53633;49.932;10.884;2022-07-11T12:57:26;23.30;57.84
66722;SHT31;53633;49.932;10.884;2022-07-11T12:59:53;23.15;58.45
66722;SHT31;53633;49.932;10.884;2022-07-11T13:02:20;23.35;56.18
66722;SHT31;53633;49.932;10.884;2022-07-11T13:04:51;23.18;56.66
66722;SHT31;53633;49.932;10.884;2022-07-11T13:07:27;23.14;55.84
66722;SHT31;53633;49.932;10.884;2022-07-11T13:09:53;23.03;56.82
66722;SHT31;53633;49.932;10.884;2022-07-11T13:12:20;22.90;57.26
66722;SHT31;53633;49.932;10.884;2022-07-11T13:14:47;22.51;59.24
66722;SHT31;53633;49.932;10.884;2022-07-11T13:17:13;22.27;59.56
66722;SHT31;53633;49.932;10.884;2022-07-11T13:19:42;22.11;60.01
66722;SHT31;53633;49.932;10.884;2022-07-11T13:22:09;21.89;60.55
66722;SHT31;53633;49.932;10.884;2022-07-11T13:24:37;21.66;60.84
66722;SHT31;53633;49.932;10.884;2022-07-11T13:27:04;21.57;60.56
66722;SHT31;53633;49.932;10.884;2022-07-11T13:29:31;21.56;61.39
66722;SHT31;53633;49.932;10.884;2022-07-11T13:31:58;21.62;61.69
66722;SHT31;53633;49.932;10.884;2022-07-11T13:34:25;21.76;60.72
66722;SHT31;53633;49.932;10.884;2022-07-11T13:36:51;21.83;60.60
66722;SHT31;53633;49.932;10.884;2022-07-11T13:39:18;22.07;59.37
66722;SHT31;53633;49.932;10.884;2022-07-11T13:41:47;22.35;59.32
66722;SHT31;53633;49.932;10.884;2022-07-11T13:44:14;22.53;59.89
66722;SHT31;53633;49.932;10.884;2022-07-11T13:46:41;22.63;57.83
66722;SHT31;53633;49.932;10.884;2022-07-11T13:49:08;22.93;57.04
66722;SHT31;53633;49.932;10.884;2022-07-11T13:51:34;22.73;57.88
66722;SHT31;53633;49.932;10.884;2022-07-11T13:54:01;22.70;58.20
66722;SHT31;53633;49.932;10.884;2022-07-11T13:56:28;22.59;58.56
66722;SHT31;53633;49.932;10.884;2022-07-11T13:58:56;22.51;58.35
66722;SHT31;53633;49.932;10.884;2022-07-11T14:01:23;22.57;59.31
66722;SHT31;53633;49.932;10.884;2022-07-11T14:03:50;22.41;59.25
66722;SHT31;53633;49.932;10.884;2022-07-11T14:06:16;22.28;59.35
66722;SHT31;53633;49.932;10.884;2022-07-11T14:09:09;22.24;59.71
66722;SHT31;53633;49.932;10.884;2022-07-11T14:11:35;21.87;60.98
66722;SHT31;53633;49.932;10.884;2022-07-11T14:14:04;21.63;62.55
66722;SHT31;53633;49.932;10.884;2022-07-11T14:16:30;21.45;67.03
66722;SHT31;53633;49.932;10.884;2022-07-11T14:18:59;21.32;66.80
66722;SHT31;53633;49.932;10.884;2022-07-11T14:21:26;21.08;67.67
66722;SHT31;53633;49.932;10.884;2022-07-11T14:23:57;20.90;70.50
66722;SHT31;53633;49.932;10.884;2022-07-11T14:26:23;20.98;68.61
66722;SHT31;53633;49.932;10.884;2022-07-11T14:28:50;20.97;68.58
66722;SHT31;53633;49.932;10.884;2022-07-11T14:31:18;21.02;69.06
66722;SHT31;53633;49.932;10.884;2022-07-11T14:33:45;21.04;68.18
66722;SHT31;53633;49.932;10.884;2022-07-11T14:36:12;21.04;67.90
66722;SHT31;53633;49.932;10.884;2022-07-11T14:38:38;21.26;66.36
66722;SHT31;53633;49.932;10.884;2022-07-11T14:41:05;21.41;65.17
66722;SHT31;53633;49.932;10.884;2022-07-11T14:43:32;21.60;64.26
66722;SHT31;53633;49.932;10.884;2022-07-11T14:45:58;21.62;64.52
66722;SHT31;53633;49.932;10.884;2022-07-11T14:48:26;21.74;63.84
66722;SHT31;53633;49.932;10.884;2022-07-11T14:50:53;21.81;63.52
66722;SHT31;53633;49.932;10.884;2022-07-11T14:53:20;21.70;63.89
66722;SHT31;53633;49.932;10.884;2022-07-11T14:55:46;21.80;63.84
66722;SHT31;53633;49.932;10.884;2022-07-11T14:58:33;21.66;62.51
66722;SHT31;53633;49.932;10.884;2022-07-11T15:01:00;21.70;63.26
66722;SHT31;53633;49.932;10.884;2022-07-11T15:03:28;21.72;62.99
66722;SHT31;53633;49.932;10.884;2022-07-11T15:05:54;21.57;63.39
66722;SHT31;53633;49.932;10.884;2022-07-11T15:08:21;21.63;63.39
66722;SHT31;53633;49.932;10.884;2022-07-11T15:10:48;21.72;63.83
66722;SHT31;53633;49.932;10.884;2022-07-11T15:13:23;21.73;63.54
66722;SHT31;53633;49.932;10.884;2022-07-11T15:15:49;21.59;63.52
66722;SHT31;53633;49.932;10.884;2022-07-11T15:18:16;21.56;63.61
66722;SHT31;53633;49.932;10.884;2022-07-11T15:20:44;21.63;63.85
66722;SHT31;53633;49.932;10.884;2022-07-11T15:23:11;21.63;63.24
66722;SHT31;53633;49.932;10.884;2022-07-11T15:25:37;21.67;63.72
66722;SHT31;53633;49.932;10.884;2022-07-11T15:28:04;21.64;63.15